sensor_id;sensor_type;location;lat;lon;timestamp;pressure;altitude;pressure_sealevel;temperature;humidity
3250;BME280;1637;42.020;23.992;2023-04-20T00:00:40;92382.31;;;6.16;100.00
3250;BME280;1637;42.020;23.992;2023-04-20T00:03:08;92399.31;;;6.47;100.00
3250;BME280;1637;42.020;23.992;2023-04-20T00:05:37;92404.59;;;6.68;100.00
3250;BME280;1637;42.020;23.992;2023-04-20T00:08:03;92399.69;;;6.63;100.00
3250;BME280;1637;42.020;23.992;2023-04-20T00:10:30;92394.00;;;6.54;100.00
3250;BME280;1637;42.020;23.992;2023-04-20T00:12:57;92392.91;;;6.41;100.00
3250;BME280;1637;42.020;23.992;2023-04-20T00:15:24;92385.69;;;6.38;100.00
3250;BME280;1637;42.020;23.992;2023-04-20T00:17:51;92381.13;;;6.35;100.00
3250;BME280;1637;42.020;23.992;2023-04-20T00:20:19;92384.94;;;6.34;100.00
3250;BME280;1637;42.020;23.992;2023-04-20T00:22:46;92367.06;;;6.27;100.00
3250;BME280;1637;42.020;23.992;2023-04-20T00:25:13;92391.78;;;6.24;100.00
3250;BME280;1637;42.020;23.992;2023-04-20T00:27:40;92376.56;;;6.32;100.00
3250;BME280;1637;42.020;23.992;2023-04-20T00:30:09;92377.31;;;6.32;100.00
3250;BME280;1637;42.020;23.992;2023-04-20T00:32:36;92376.19;;;6.26;100.00
3250;BME280;1637;42.020;23.992;2023-04-20T00:35:03;92380.75;;;6.29;100.00
3250;BME280;1637;42.020;23.992;2023-04-20T00:37:31;92372.00;;;6.39;100.00
3250;BME280;1637;42.020;23.992;2023-04-20T00:39:58;92375.78;;;6.45;100.00
3250;BME280;1637;42.020;23.992;2023-04-20T00:42:25;92372.75;;;6.43;100.00
3250;BME280;1637;42.020;23.992;2023-04-20T00:44:52;92367.44;;;6.40;100.00
3250;BME280;1637;42.020;23.992;2023-04-20T00:47:19;92373.16;;;6.38;100.00
3250;BME280;1637;42.020;23.992;2023-04-20T00:49:46;92370.47;;;6.42;100.00
3250;BME280;1637;42.020;23.992;2023-04-20T00:52:13;92362.88;;;6.40;100.00
3250;BME280;1637;42.020;23.992;2023-04-20T00:54:41;92372.00;;;6.32;100.00
3250;BME280;1637;42.020;23.992;2023-04-20T00:57:10;92361.38;;;6.25;100.00
3250;BME280;1637;42.020;23.992;2023-04-20T00:59:38;92366.69;;;6.25;100.00
3250;BME280;1637;42.020;23.992;2023-04-20T01:02:05;92366.31;;;6.30;100.00
3250;BME280;1637;42.020;23.992;2023-04-20T01:04:33;92334.06;;;6.17;100.00
3250;BME280;1637;42.020;23.992;2023-04-20T01:07:00;92372.00;;;6.32;100.00
3250;BME280;1637;42.020;23.992;2023-04-20T01:09:28;92357.59;;;6.26;100.00
3250;BME280;1637;42.020;23.992;2023-04-20T01:11:56;92364.06;;;6.14;100.00
3250;BME280;1637;42.020;23.992;2023-04-20T01:14:23;92359.91;;;6.17;100.00
3250;BME280;1637;42.020;23.992;2023-04-20T01:16:50;92351.53;;;6.08;100.00
3250;BME280;1637;42.020;23.992;2023-04-20T01:19:17;92358.41;;;5.98;100.00
3250;BME280;1637;42.020;23.992;2023-04-20T01:21:43;92355.38;;;5.89;100.00
3250;BME280;1637;42.020;23.992;2023-04-20T01:24:13;92347.38;;;5.82;100.00
3250;BME280;1637;42.020;23.992;2023-04-20T01:26:39;92351.91;;;5.85;100.00
3250;BME280;1637;42.020;23.992;2023-04-20T01:29:06;92358.41;;;5.91;100.00
3250;BME280;1637;42.020;23.992;2023-04-20T01:31:33;92359.16;;;5.99;100.00
3250;BME280;1637;42.020;23.992;2023-04-20T01:34:00;92359.16;;;5.92;100.00
3250;BME280;1637;42.020;23.992;2023-04-20T01:36:26;92358.75;;;5.86;100.00
3250;BME280;1637;42.020;23.992;2023-04-20T01:38:53;92292.38;;;5.36;100.00
3250;BME280;1637;42.020;23.992;2023-04-20T01:41:22;92360.69;;;5.89;100.00
3250;BME280;1637;42.020;23.992;2023-04-20T01:43:49;92355.75;;;5.95;100.00
3250;BME280;1637;42.020;23.992;2023-04-20T01:46:15;92353.84;;;5.81;100.00
3250;BME280;1637;42.020;23.992;2023-04-20T01:48:42;92350.03;;;5.68;100.00
3250;BME280;1637;42.020;23.992;2023-04-20T01:51:09;92353.84;;;5.74;100.00
3250;BME280;1637;42.020;23.992;2023-04-20T01:53:36;92353.81;;;5.88;100.00
3250;BME280;1637;42.020;23.992;2023-04-20T01:56:03;92354.22;;;6.01;100.00
3250;BME280;1637;42.020;23.992;2023-04-20T01:58:31;92350.03;;;6.17;100.00
3250;BME280;1637;42.020;23.992;2023-04-20T02:01:00;92349.66;;;6.08;100.00
3250;BME280;1637;42.020;23.992;2023-04-20T02:03:27;92342.44;;;5.87;100.00
3250;BME280;1637;42.020;23.992;2023-04-20T02:05:54;92343.59;;;5.76;100.00
3250;BME280;1637;42.020;23.992;2023-04-20T02:08:21;92339.81;;;5.59;100.00
3250;BME280;1637;42.020;23.992;2023-04-20T02:10:48;92337.91;;;5.49;100.00
3250;BME280;1637;42.020;23.992;2023-04-20T02:13:14;92342.06;;;5.43;100.00
3250;BME280;1637;42.020;23.992;2023-04-20T02:15:43;92339.44;;;5.36;100.00
3250;BME280;1637;42.020;23.992;2023-04-20T02:18:10;92331.06;;;5.44;100.00
3250;BME280;1637;42.020;23.992;2023-04-20T02:20:37;92343.22;;;5.38;100.00
3250;BME280;1637;42.020;23.992;2023-04-20T02:23:03;92346.25;;;5.37;100.00
3250;BME280;1637;42.020;23.992;2023-04-20T02:25:30;92361.81;;;5.60;100.00
3250;BME280;1637;42.020;23.992;2023-04-20T02:27:57;92353.06;;;5.70;100.00
3250;BME280;1637;42.020;23.992;2023-04-20T02:30:24;92347.00;;;5.94;100.00
3250;BME280;1637;42.020;23.992;2023-04-20T02:32:52;92353.84;;;5.99;100.00
3250;BME280;1637;42.020;23.992;2023-04-20T02:35:19;92353.06;;;5.84;100.00
3250;BME280;1637;42.020;23.992;2023-04-20T02:37:46;92357.66;;;5.94;100.00
3250;BME280;1637;42.020;23.992;2023-04-20T02:40:13;92350.06;;;5.89;100.00
3250;BME280;1637;42.020;23.992;2023-04-20T02:42:40;92355.75;;;5.73;100.00
3250;BME280;1637;42.020;23.992;2023-04-20T02:45:08;92357.63;;;5.73;100.00
3250;BME280;1637;42.020;23.992;2023-04-20T02:47:35;92350.81;;;5.72;100.00
3250;BME280;1637;42.020;23.992;2023-04-20T02:50:05;92356.88;;;5.65;100.00
3250;BME280;1637;42.020;23.992;2023-04-20T02:52:32;92358.78;;;5.79;100.00
3250;BME280;1637;42.020;23.992;2023-04-20T02:54:58;92359.94;;;5.92;100.00
3250;BME280;1637;42.020;23.992;2023-04-20T02:57:25;92355.38;;;5.89;100.00
3250;BME280;1637;42.020;23.992;2023-04-20T02:59:52;92355.34;;;5.71;100.00
3250;BME280;1637;42.020;23.992;2023-04-20T03:02:19;92344.34;;;5.51;100.00
3250;BME280;1637;42.020;23.992;2023-04-20T03:04:45;92350.78;;;5.43;100.00
3250;BME280;1637;42.020;23.992;2023-04-20T03:07:14;92348.16;;;5.36;100.00
3250;BME280;1637;42.020;23.992;2023-04-20T03:09:41;92314.00;;;5.13;100.00
3250;BME280;1637;42.020;23.992;2023-04-20T03:12:08;92333.31;;;5.21;100.00
3250;BME280;1637;42.020;23.992;2023-04-20T03:14:35;92346.59;;;5.14;100.00
3250;BME280;1637;42.020;23.992;2023-04-20T03:17:01;92345.09;;;5.24;100.00
3250;BME280;1637;42.020;23.992;2023-04-20T03:19:28;92351.94;;;5.35;100.00
3250;BME280;1637;42.020;23.992;2023-04-20T03:21:55;92352.69;;;5.43;100.00
3250;BME280;1637;42.020;23.992;2023-04-20T03:24:23;92342.09;;;5.39;100.00
3250;BME280;1637;42.020;23.992;2023-04-20T03:26:50;92352.31;;;5.48;100.00
3250;BME280;1637;42.020;23.992;2023-04-20T03:29:17;92324.25;;;5.33;100.00
3250;BME280;1637;42.020;23.992;2023-04-20T03:31:43;92352.31;;;5.51;100.00
3250;BME280;1637;42.020;23.992;2023-04-20T03:34:10;92354.59;;;5.49;100.00
3250;BME280;1637;42.020;23.992;2023-04-20T03:36:37;92354.97;;;5.44;100.00
3250;BME280;1637;42.020;23.992;2023-04-20T03:39:04;92360.66;;;5.32;100.00
3250;BME280;1637;42.020;23.992;2023-04-20T03:41:32;92366.72;;;5.26;100.00
3250;BME280;1637;42.020;23.992;2023-04-20T03:43:59;92366.69;;;5.22;100.00
3250;BME280;1637;42.020;23.992;2023-04-20T03:46:26;92375.44;;;5.23;100.00
3250;BME280;1637;42.020;23.992;2023-04-20T03:48:53;92368.97;;;5.20;100.00
3250;BME280;1637;42.020;23.992;2023-04-20T03:51:19;92375.06;;;5.24;100.00
3250;BME280;1637;42.020;23.992;2023-04-20T03:53:46;92372.41;;;5.28;100.00
3250;BME280;1637;42.020;23.992;2023-04-20T03:56:13;92366.31;;;5.24;100.00
3250;BME280;1637;42.020;23.992;2023-04-20T03:58:41;92369.00;;;5.27;100.00
3250;BME280;1637;42.020;23.992;2023-04-20T04:01:09;92375.44;;;5.30;100.00
3250;BME280;1637;42.020;23.992;2023-04-20T04:03:37;92368.63;;;5.29;100.00
3250;BME280;1637;42.020;23.992;2023-04-20T04:06:04;92367.09;;;5.28;100.00
3250;BME280;1637;42.020;23.992;2023-04-20T04:08:31;92376.97;;;5.34;100.00
3250;BME280;1637;42.020;23.992;2023-04-20T04:10:58;92374.72;;;5.75;100.00
3250;BME280;1637;42.020;23.992;2023-04-20T04:13:25;92381.94;;;5.96;100.00
3250;BME280;1637;42.020;23.992;2023-04-20T04:15:53;92370.53;;;6.06;100.00
3250;BME280;1637;42.020;23.992;2023-04-20T04:18:20;92375.13;;;5.95;100.00
3250;BME280;1637;42.020;23.992;2023-04-20T04:20:47;92380.03;;;6.04;100.00
3250;BME280;1637;42.020;23.992;2023-04-20T04:23:14;92381.56;;;5.76;100.00
3250;BME280;1637;42.020;23.992;2023-04-20T04:25:41;92388.00;;;6.11;100.00
3250;BME280;1637;42.020;23.992;2023-04-20T04:28:08;92396.31;;;6.31;100.00
3250;BME280;1637;42.020;23.992;2023-04-20T04:30:35;92399.38;;;6.33;100.00
3250;BME280;1637;42.020;23.992;2023-04-20T04:33:03;92400.16;;;6.23;100.00
3250;BME280;1637;42.020;23.992;2023-04-20T04:35:30;92370.16;;;5.79;100.00
3250;BME280;1637;42.020;23.992;2023-04-20T04:37:57;92395.97;;;6.04;100.00
3250;BME280;1637;42.020;23.992;2023-04-20T04:40:24;92399.41;;;5.97;100.00
3250;BME280;1637;42.020;23.992;2023-04-20T04:42:51;92403.97;;;6.00;100.00
3250;BME280;1637;42.020;23.992;2023-04-20T04:45:18;92408.50;;;6.03;100.00
3250;BME280;1637;42.020;23.992;2023-04-20T04:47:45;92410.03;;;5.90;100.00
3250;BME280;1637;42.020;23.992;2023-04-20T04:50:13;92399.75;;;5.67;100.00
3250;BME280;1637;42.020;23.992;2023-04-20T04:52:40;92400.88;;;5.63;100.00
3250;BME280;1637;42.020;23.992;2023-04-20T04:55:07;92402.41;;;5.57;100.00
3250;BME280;1637;42.020;23.992;2023-04-20T04:57:34;92407.72;;;5.67;100.00
3250;BME280;1637;42.020;23.992;2023-04-20T05:00:04;92419.53;;;5.80;100.00
3250;BME280;1637;42.020;23.992;2023-04-20T05:02:34;92403.56;;;5.84;100.00
3250;BME280;1637;42.020;23.992;2023-04-20T05:05:00;92397.88;;;6.10;100.00
3250;BME280;1637;42.020;23.992;2023-04-20T05:07:29;92403.94;;;6.11;100.00
3250;BME280;1637;42.020;23.992;2023-04-20T05:09:56;92410.38;;;6.31;100.00
3250;BME280;1637;42.020;23.992;2023-04-20T05:12:23;92413.03;;;6.38;100.00
3250;BME280;1637;42.020;23.992;2023-04-20T05:14:50;92410.38;;;6.38;100.00
3250;BME280;1637;42.020;23.992;2023-04-20T05:17:17;92414.59;;;6.22;100.00
3250;BME280;1637;42.020;23.992;2023-04-20T05:19:44;92414.19;;;6.27;100.00
3250;BME280;1637;42.020;23.992;2023-04-20T05:22:10;92377.00;;;5.77;100.00
3250;BME280;1637;42.020;23.992;2023-04-20T05:24:39;92414.56;;;6.25;100.00
3250;BME280;1637;42.020;23.992;2023-04-20T05:27:06;92413.81;;;6.39;100.00
3250;BME280;1637;42.020;23.992;2023-04-20T05:29:33;92413.03;;;6.35;100.00
3250;BME280;1637;42.020;23.992;2023-04-20T05:32:00;92407.34;;;6.29;100.00
3250;BME280;1637;42.020;23.992;2023-04-20T05:34:27;92403.53;;;6.30;100.00
3250;BME280;1637;42.020;23.992;2023-04-20T05:36:54;92406.97;;;6.41;100.00
3250;BME280;1637;42.020;23.992;2023-04-20T05:39:21;92413.34;;;6.69;100.00
3250;BME280;1637;42.020;23.992;2023-04-20T05:41:49;92417.44;;;6.91;100.00
3250;BME280;1637;42.020;23.992;2023-04-20T05:44:16;92415.06;;;7.18;100.00
3250;BME280;1637;42.020;23.992;2023-04-20T05:46:43;92423.78;;;7.22;100.00
3250;BME280;1637;42.020;23.992;2023-04-20T05:49:10;92421.13;;;7.18;100.00
3250;BME280;1637;42.020;23.992;2023-04-20T05:51:37;92423.78;;;7.18;100.00
3250;BME280;1637;42.020;23.992;2023-04-20T05:54:04;92424.97;;;7.14;100.00
3250;BME280;1637;42.020;23.992;2023-04-20T05:56:30;92422.44;;;6.78;100.00
3250;BME280;1637;42.020;23.992;2023-04-20T05:58:59;92427.75;;;6.82;100.00
3250;BME280;1637;42.020;23.992;2023-04-20T06:01:26;92423.59;;;6.67;100.00
3250;BME280;1637;42.020;23.992;2023-04-20T06:03:54;92423.91;;;6.94;100.00
3250;BME280;1637;42.020;23.992;2023-04-20T06:06:21;92423.06;;;7.11;100.00
3250;BME280;1637;42.020;23.992;2023-04-20T06:08:47;92426.91;;;7.03;100.00
3250;BME280;1637;42.020;23.992;2023-04-20T06:11:15;92434.81;;;7.20;100.00
3250;BME280;1637;42.020;23.992;2023-04-20T06:13:42;92421.72;;;7.51;100.00
3250;BME280;1637;42.020;23.992;2023-04-20T06:16:10;92423.28;;;7.45;100.00
3250;BME280;1637;42.020;23.992;2023-04-20T06:18:37;92417.97;;;7.45;100.00
3250;BME280;1637;42.020;23.992;2023-04-20T06:21:04;92419.84;;;7.48;100.00
3250;BME280;1637;42.020;23.992;2023-04-20T06:23:30;92426.72;;;7.45;100.00
3250;BME280;1637;42.020;23.992;2023-04-20T06:25:57;92422.91;;;7.43;100.00
3250;BME280;1637;42.020;23.992;2023-04-20T06:28:24;92414.84;;;7.53;100.00
3250;BME280;1637;42.020;23.992;2023-04-20T06:30:51;92416.31;;;7.65;100.00
3250;BME280;1637;42.020;23.992;2023-04-20T06:33:19;92419.91;;;7.92;100.00
3250;BME280;1637;42.020;23.992;2023-04-20T06:35:46;92414.47;;;8.10;100.00
3250;BME280;1637;42.020;23.992;2023-04-20T06:38:15;92419.31;;;8.22;100.00
3250;BME280;1637;42.020;23.992;2023-04-20T06:40:42;92422.66;;;8.30;100.00
3250;BME280;1637;42.020;23.992;2023-04-20T06:43:09;92423.69;;;8.47;100.00
3250;BME280;1637;42.020;23.992;2023-04-20T06:45:36;92423.16;;;8.63;100.00
3250;BME280;1637;42.020;23.992;2023-04-20T06:48:03;92430.22;;;8.39;100.00
3250;BME280;1637;42.020;23.992;2023-04-20T06:50:31;92436.88;;;8.61;100.00
3250;BME280;1637;42.020;23.992;2023-04-20T06:52:58;92439.91;;;8.67;100.00
3250;BME280;1637;42.020;23.992;2023-04-20T06:55:25;92438.34;;;8.69;100.00
3250;BME280;1637;42.020;23.992;2023-04-20T06:57:51;92441.25;;;8.82;100.00
3250;BME280;1637;42.020;23.992;2023-04-20T07:00:19;92430.75;;;8.64;100.00
3250;BME280;1637;42.020;23.992;2023-04-20T07:02:46;92430.03;;;8.60;100.00
3250;BME280;1637;42.020;23.992;2023-04-20T07:05:14;92436.75;;;8.75;100.00
3250;BME280;1637;42.020;23.992;2023-04-20T07:07:43;92445.84;;;9.76;100.00
3250;BME280;1637;42.020;23.992;2023-04-20T07:10:11;92442.97;;;10.64;100.00
3250;BME280;1637;42.020;23.992;2023-04-20T07:12:39;92448.31;;;12.35;87.42
3250;BME280;1637;42.020;23.992;2023-04-20T07:15:07;92456.34;;;13.13;80.44
3250;BME280;1637;42.020;23.992;2023-04-20T07:17:34;92445.88;;;12.57;84.73
3250;BME280;1637;42.020;23.992;2023-04-20T07:20:01;92440.97;;;12.68;85.87
3250;BME280;1637;42.020;23.992;2023-04-20T07:22:31;92432.97;;;11.47;90.84
3250;BME280;1637;42.020;23.992;2023-04-20T07:25:00;92435.13;;;11.72;92.74
3250;BME280;1637;42.020;23.992;2023-04-20T07:27:28;92442.47;;;11.52;93.49
3250;BME280;1637;42.020;23.992;2023-04-20T07:29:55;92437.44;;;10.94;94.46
3250;BME280;1637;42.020;23.992;2023-04-20T07:32:22;92434.34;;;10.76;95.21
3250;BME280;1637;42.020;23.992;2023-04-20T07:34:49;92431.56;;;10.37;98.73
3250;BME280;1637;42.020;23.992;2023-04-20T07:37:17;92434.25;;;10.37;100.00
3250;BME280;1637;42.020;23.992;2023-04-20T07:39:44;92439.22;;;10.38;98.42
3250;BME280;1637;42.020;23.992;2023-04-20T07:42:12;92433.38;;;10.43;99.27
3250;BME280;1637;42.020;23.992;2023-04-20T07:44:39;92434.03;;;10.94;94.59
3250;BME280;1637;42.020;23.992;2023-04-20T07:47:06;92430.66;;;11.10;94.60
3250;BME280;1637;42.020;23.992;2023-04-20T07:49:35;92439.56;;;11.23;95.22
3250;BME280;1637;42.020;23.992;2023-04-20T07:52:03;92434.84;;;11.30;93.97
3250;BME280;1637;42.020;23.992;2023-04-20T07:54:30;92434.28;;;11.39;90.65
3250;BME280;1637;42.020;23.992;2023-04-20T07:56:57;92432.91;;;11.51;90.50
3250;BME280;1637;42.020;23.992;2023-04-20T07:59:25;92432.44;;;10.96;93.40
3250;BME280;1637;42.020;23.992;2023-04-20T08:01:52;92422.53;;;10.74;94.06
3250;BME280;1637;42.020;23.992;2023-04-20T08:04:20;92435.94;;;11.33;92.24
3250;BME280;1637;42.020;23.992;2023-04-20T08:06:47;92432.03;;;12.10;87.51
3250;BME280;1637;42.020;23.992;2023-04-20T08:09:14;92426.91;;;12.48;86.56
3250;BME280;1637;42.020;23.992;2023-04-20T08:11:41;92428.41;;;12.65;83.18
3250;BME280;1637;42.020;23.992;2023-04-20T08:14:10;92433.34;;;13.28;77.93
3250;BME280;1637;42.020;23.992;2023-04-20T08:16:38;92432.19;;;13.54;76.91
3250;BME280;1637;42.020;23.992;2023-04-20T08:19:05;92432.44;;;13.72;73.36
3250;BME280;1637;42.020;23.992;2023-04-20T08:21:34;92431.91;;;13.77;72.36
3250;BME280;1637;42.020;23.992;2023-04-20T08:24:01;92427.78;;;13.48;74.23
3250;BME280;1637;42.020;23.992;2023-04-20T08:26:28;92432.56;;;13.27;76.66
3250;BME280;1637;42.020;23.992;2023-04-20T08:28:55;92427.25;;;12.95;79.01
3250;BME280;1637;42.020;23.992;2023-04-20T08:31:22;92420.41;;;13.23;76.46
3250;BME280;1637;42.020;23.992;2023-04-20T08:33:50;92423.75;;;13.27;75.36
3250;BME280;1637;42.020;23.992;2023-04-20T08:36:17;92396.88;;;13.27;76.09
3250;BME280;1637;42.020;23.992;2023-04-20T08:38:44;92420.63;;;13.28;75.00
3250;BME280;1637;42.020;23.992;2023-04-20T08:41:11;92416.72;;;13.58;75.68
3250;BME280;1637;42.020;23.992;2023-04-20T08:43:39;92420.47;;;13.61;73.58
3250;BME280;1637;42.020;23.992;2023-04-20T08:46:06;92411.53;;;13.51;73.89
3250;BME280;1637;42.020;23.992;2023-04-20T08:48:34;92411.47;;;13.80;74.06
3250;BME280;1637;42.020;23.992;2023-04-20T08:51:03;92418.31;;;14.70;69.55
3250;BME280;1637;42.020;23.992;2023-04-20T08:53:31;92415.69;;;15.13;65.99
3250;BME280;1637;42.020;23.992;2023-04-20T08:55:57;92435.75;;;16.00;63.21
3250;BME280;1637;42.020;23.992;2023-04-20T08:58:29;92414.66;;;15.86;63.55
3250;BME280;1637;42.020;23.992;2023-04-20T09:00:56;92415.81;;;15.54;62.73
3250;BME280;1637;42.020;23.992;2023-04-20T09:03:34;92410.41;;;15.32;58.15
3250;BME280;1637;42.020;23.992;2023-04-20T09:06:03;92397.63;;;15.23;57.70
3250;BME280;1637;42.020;23.992;2023-04-20T09:08:35;92398.97;;;14.84;62.50
3250;BME280;1637;42.020;23.992;2023-04-20T09:11:02;92406.28;;;15.93;57.65
3250;BME280;1637;42.020;23.992;2023-04-20T09:13:29;92404.34;;;16.42;54.22
3250;BME280;1637;42.020;23.992;2023-04-20T09:15:56;92418.16;;;17.48;53.76
3250;BME280;1637;42.020;23.992;2023-04-20T09:18:23;92407.00;;;16.24;55.64
3250;BME280;1637;42.020;23.992;2023-04-20T09:20:50;92409.56;;;15.57;57.15
3250;BME280;1637;42.020;23.992;2023-04-20T09:23:19;92403.19;;;15.29;59.57
3250;BME280;1637;42.020;23.992;2023-04-20T09:25:50;92414.25;;;14.27;61.77
3250;BME280;1637;42.020;23.992;2023-04-20T09:28:18;92406.63;;;13.88;60.64
3250;BME280;1637;42.020;23.992;2023-04-20T09:30:46;92410.59;;;13.96;62.49
3250;BME280;1637;42.020;23.992;2023-04-20T09:33:14;92401.94;;;14.39;64.02
3250;BME280;1637;42.020;23.992;2023-04-20T09:35:42;92401.22;;;14.86;64.18
3250;BME280;1637;42.020;23.992;2023-04-20T09:38:10;92390.72;;;16.06;56.61
3250;BME280;1637;42.020;23.992;2023-04-20T09:40:38;92397.28;;;17.03;52.74
3250;BME280;1637;42.020;23.992;2023-04-20T09:43:08;92386.59;;;17.09;54.75
3250;BME280;1637;42.020;23.992;2023-04-20T09:45:37;92361.84;;;16.43;52.39
3250;BME280;1637;42.020;23.992;2023-04-20T09:48:05;92386.94;;;15.94;53.87
3250;BME280;1637;42.020;23.992;2023-04-20T09:50:34;92393.50;;;16.24;54.78
3250;BME280;1637;42.020;23.992;2023-04-20T09:53:02;92383.03;;;15.64;57.22
3250;BME280;1637;42.020;23.992;2023-04-20T09:55:30;92385.38;;;15.84;55.58
3250;BME280;1637;42.020;23.992;2023-04-20T09:58:00;92383.72;;;14.68;57.24
3250;BME280;1637;42.020;23.992;2023-04-20T10:00:27;92389.94;;;15.00;58.72
3250;BME280;1637;42.020;23.992;2023-04-20T10:02:54;92382.91;;;14.81;58.38
3250;BME280;1637;42.020;23.992;2023-04-20T10:05:31;92368.97;;;14.35;57.75
3250;BME280;1637;42.020;23.992;2023-04-20T10:07:59;92382.28;;;14.04;57.04
3250;BME280;1637;42.020;23.992;2023-04-20T10:10:26;92348.69;;;14.08;58.70
3250;BME280;1637;42.020;23.992;2023-04-20T10:12:55;92366.03;;;13.69;61.69
3250;BME280;1637;42.020;23.992;2023-04-20T10:15:35;92361.25;;;13.35;63.66
3250;BME280;1637;42.020;23.992;2023-04-20T10:18:13;92365.06;;;13.63;64.07
3250;BME280;1637;42.020;23.992;2023-04-20T10:20:41;92363.22;;;13.60;62.08
3250;BME280;1637;42.020;23.992;2023-04-20T10:23:09;92361.38;;;13.95;62.51
3250;BME280;1637;42.020;23.992;2023-04-20T10:25:36;92363.00;;;13.80;61.97
3250;BME280;1637;42.020;23.992;2023-04-20T10:28:04;92361.16;;;14.02;64.68
3250;BME280;1637;42.020;23.992;2023-04-20T10:30:36;92356.72;;;14.21;63.35
3250;BME280;1637;42.020;23.992;2023-04-20T10:33:05;92356.47;;;15.32;63.54
3250;BME280;1637;42.020;23.992;2023-04-20T10:35:45;92363.81;;;15.09;61.02
3250;BME280;1637;42.020;23.992;2023-04-20T10:38:12;92371.75;;;14.91;59.54
3250;BME280;1637;42.020;23.992;2023-04-20T10:40:39;92356.31;;;14.10;62.92
3250;BME280;1637;42.020;23.992;2023-04-20T10:43:17;92370.09;;;14.25;60.41
3250;BME280;1637;42.020;23.992;2023-04-20T10:45:45;92369.34;;;13.99;59.91
3250;BME280;1637;42.020;23.992;2023-04-20T10:48:12;92365.47;;;13.74;60.00
3250;BME280;1637;42.020;23.992;2023-04-20T10:50:39;92368.50;;;13.76;60.90
3250;BME280;1637;42.020;23.992;2023-04-20T10:53:16;92367.28;;;13.52;61.48
3250;BME280;1637;42.020;23.992;2023-04-20T10:55:43;92379.69;;;13.62;61.35
3250;BME280;1637;42.020;23.992;2023-04-20T10:58:20;92374.97;;;13.66;61.19
3250;BME280;1637;42.020;23.992;2023-04-20T11:00:58;92384.44;;;13.84;59.57
3250;BME280;1637;42.020;23.992;2023-04-20T11:03:26;92378.09;;;13.77;59.30
3250;BME280;1637;42.020;23.992;2023-04-20T11:05:54;92372.91;;;13.83;59.42
3250;BME280;1637;42.020;23.992;2023-04-20T11:08:21;92372.38;;;13.63;59.96
3250;BME280;1637;42.020;23.992;2023-04-20T11:10:48;92375.69;;;13.54;60.61
3250;BME280;1637;42.020;23.992;2023-04-20T11:13:19;92371.34;;;13.31;60.97
3250;BME280;1637;42.020;23.992;2023-04-20T11:15:46;92376.53;;;13.38;61.84
3250;BME280;1637;42.020;23.992;2023-04-20T11:18:15;92380.22;;;13.95;59.75
3250;BME280;1637;42.020;23.992;2023-04-20T11:20:49;92376.69;;;14.11;58.49
3250;BME280;1637;42.020;23.992;2023-04-20T11:23:18;92376.88;;;14.76;56.63
3250;BME280;1637;42.020;23.992;2023-04-20T11:25:50;92379.00;;;14.82;55.24
3250;BME280;1637;42.020;23.992;2023-04-20T11:28:18;92380.06;;;14.62;57.29
3250;BME280;1637;42.020;23.992;2023-04-20T11:30:45;92374.16;;;14.89;61.00
3250;BME280;1637;42.020;23.992;2023-04-20T11:33:12;92361.06;;;14.66;59.71
3250;BME280;1637;42.020;23.992;2023-04-20T11:35:41;92360.09;;;14.60;61.62
3250;BME280;1637;42.020;23.992;2023-04-20T11:38:08;92362.91;;;14.69;60.32
3250;BME280;1637;42.020;23.992;2023-04-20T11:40:35;92367.75;;;14.01;59.72
3250;BME280;1637;42.020;23.992;2023-04-20T11:43:02;92349.31;;;14.00;62.26
3250;BME280;1637;42.020;23.992;2023-04-20T11:45:30;92360.66;;;13.69;60.32
3250;BME280;1637;42.020;23.992;2023-04-20T11:47:57;92354.06;;;13.83;61.62
3250;BME280;1637;42.020;23.992;2023-04-20T11:50:25;92349.97;;;14.04;63.88
3250;BME280;1637;42.020;23.992;2023-04-20T11:52:53;92268.22;;;13.98;62.87
3250;BME280;1637;42.020;23.992;2023-04-20T11:55:20;92340.28;;;14.88;63.29
3250;BME280;1637;42.020;23.992;2023-04-20T11:57:47;92334.81;;;14.79;65.31
3250;BME280;1637;42.020;23.992;2023-04-20T12:00:15;92340.41;;;15.28;61.00
3250;BME280;1637;42.020;23.992;2023-04-20T12:02:42;92331.63;;;14.93;61.13
3250;BME280;1637;42.020;23.992;2023-04-20T12:05:09;92330.16;;;14.58;61.25
3250;BME280;1637;42.020;23.992;2023-04-20T12:07:37;92337.78;;;14.94;62.71
3250;BME280;1637;42.020;23.992;2023-04-20T12:10:07;92332.50;;;14.90;63.67
3250;BME280;1637;42.020;23.992;2023-04-20T12:12:34;92333.75;;;14.98;62.73
3250;BME280;1637;42.020;23.992;2023-04-20T12:15:03;92335.13;;;14.81;58.48
3250;BME280;1637;42.020;23.992;2023-04-20T12:17:31;92335.84;;;14.60;58.21
3250;BME280;1637;42.020;23.992;2023-04-20T12:19:57;92332.28;;;14.63;59.46
3250;BME280;1637;42.020;23.992;2023-04-20T12:22:25;92323.03;;;14.86;60.67
3250;BME280;1637;42.020;23.992;2023-04-20T12:24:52;92322.91;;;14.89;58.99
3250;BME280;1637;42.020;23.992;2023-04-20T12:27:20;92322.50;;;14.78;58.37
3250;BME280;1637;42.020;23.992;2023-04-20T12:29:47;92320.03;;;14.84;58.09
3250;BME280;1637;42.020;23.992;2023-04-20T12:32:13;92315.81;;;15.04;56.28
3250;BME280;1637;42.020;23.992;2023-04-20T12:34:40;92311.72;;;14.78;56.95
3250;BME280;1637;42.020;23.992;2023-04-20T12:37:07;92300.72;;;14.85;56.52
3250;BME280;1637;42.020;23.992;2023-04-20T12:39:34;92310.81;;;15.77;55.57
3250;BME280;1637;42.020;23.992;2023-04-20T12:42:00;92312.78;;;15.86;54.64
3250;BME280;1637;42.020;23.992;2023-04-20T12:44:29;92306.91;;;15.17;54.05
3250;BME280;1637;42.020;23.992;2023-04-20T12:46:56;92307.75;;;15.66;56.35
3250;BME280;1637;42.020;23.992;2023-04-20T12:49:23;92309.03;;;15.84;54.01
3250;BME280;1637;42.020;23.992;2023-04-20T12:51:50;92297.00;;;15.75;55.92
3250;BME280;1637;42.020;23.992;2023-04-20T12:54:17;92292.59;;;16.00;55.34
3250;BME280;1637;42.020;23.992;2023-04-20T12:56:43;92292.44;;;16.22;55.36
3250;BME280;1637;42.020;23.992;2023-04-20T12:59:10;92277.00;;;16.13;55.10
3250;BME280;1637;42.020;23.992;2023-04-20T13:01:38;92287.41;;;15.84;54.42
3250;BME280;1637;42.020;23.992;2023-04-20T13:04:05;92278.06;;;16.25;53.28
3250;BME280;1637;42.020;23.992;2023-04-20T13:06:32;92269.75;;;16.01;54.63
3250;BME280;1637;42.020;23.992;2023-04-20T13:08:59;92276.44;;;16.36;52.95
3250;BME280;1637;42.020;23.992;2023-04-20T13:11:26;92280.19;;;16.94;52.30